createdAt,value
2019-06-26T00:00:20.744Z,22.76
2019-06-26T00:01:20.730Z,22.68
2019-06-26T00:02:20.722Z,22.73
2019-06-26T00:03:20.814Z,22.67
2019-06-26T00:05:20.689Z,22.67
2019-06-26T00:06:20.798Z,22.67
2019-06-26T00:07:20.666Z,22.67
2019-06-26T00:08:20.754Z,22.68
2019-06-26T00:09:20.738Z,22.71
2019-06-26T00:10:20.640Z,22.68
2019-06-26T00:11:20.628Z,22.67
2019-06-26T00:12:20.619Z,22.70
2019-06-26T00:13:26.163Z,22.59
2019-06-26T00:14:20.588Z,22.53
2019-06-26T00:15:20.571Z,22.59
2019-06-26T00:16:20.565Z,22.59
2019-06-26T00:17:20.558Z,22.58
2019-06-26T00:18:20.553Z,22.49
2019-06-26T00:19:21.297Z,22.52
2019-06-26T00:20:23.849Z,22.53
2019-06-26T00:21:22.040Z,22.46
2019-06-26T00:22:20.493Z,22.43
2019-06-26T00:23:20.482Z,22.48
2019-06-26T00:24:20.564Z,22.52
2019-06-26T00:25:20.563Z,22.49
2019-06-26T00:26:20.447Z,22.48
2019-06-26T00:27:20.434Z,22.44
2019-06-26T00:28:20.433Z,22.43
2019-06-26T00:30:20.405Z,22.38
2019-06-26T00:31:20.455Z,22.28
2019-06-26T00:32:20.489Z,22.28
2019-06-26T00:33:20.523Z,22.46
2019-06-26T00:34:20.358Z,22.27
2019-06-26T00:35:20.413Z,22.34
2019-06-26T00:36:20.330Z,22.34
2019-06-26T00:37:20.317Z,22.34
2019-06-26T00:38:20.311Z,22.31
2019-06-26T00:39:20.301Z,22.30
2019-06-26T00:40:20.292Z,22.23
2019-06-26T00:41:20.274Z,22.21
2019-06-26T00:42:20.260Z,22.19
2019-06-26T00:43:20.255Z,22.13
2019-06-26T00:44:20.249Z,22.18
2019-06-26T00:45:20.225Z,22.18
2019-06-26T00:46:20.278Z,22.23
2019-06-26T00:47:20.248Z,22.07
2019-06-26T00:48:20.492Z,22.03
2019-06-26T00:49:20.290Z,22.03
2019-06-26T00:50:20.398Z,21.98
2019-06-26T00:51:20.164Z,22.01
2019-06-26T00:52:20.151Z,22.00
2019-06-26T00:53:20.237Z,22.03
2019-06-26T00:54:20.118Z,22.06
2019-06-26T00:56:20.101Z,22.00
2019-06-26T00:57:20.089Z,22.04
2019-06-26T00:58:20.088Z,22.00
2019-06-26T00:59:20.074Z,22.03
2019-06-26T01:00:20.130Z,22.03
2019-06-26T01:01:20.051Z,21.96
2019-06-26T01:02:20.032Z,21.94
2019-06-26T01:03:20.124Z,21.97
2019-06-26T01:04:20.325Z,21.88
2019-06-26T01:05:20.071Z,21.94
2019-06-26T01:06:19.988Z,21.81
2019-06-26T01:07:20.081Z,21.80
2019-06-26T01:08:20.133Z,21.82
2019-06-26T01:09:19.960Z,21.78
2019-06-26T01:10:20.291Z,21.84
2019-06-26T01:11:21.687Z,21.85
2019-06-26T01:12:19.943Z,21.81
2019-06-26T01:13:19.937Z,21.88
2019-06-26T01:14:19.886Z,21.85
2019-06-26T01:15:20.046Z,21.81
2019-06-26T01:16:19.965Z,21.78
2019-06-26T01:17:20.041Z,21.73
2019-06-26T01:18:20.330Z,21.80
2019-06-26T01:19:20.536Z,21.82
2019-06-26T01:20:19.866Z,21.74
2019-06-26T01:21:19.803Z,21.81
2019-06-26T01:22:19.799Z,21.80
2019-06-26T01:23:20.043Z,21.73
2019-06-26T01:25:19.913Z,21.74
2019-06-26T01:26:20.150Z,21.78
2019-06-26T01:27:19.975Z,21.66
2019-06-26T01:28:20.268Z,21.66
2019-06-26T01:29:20.161Z,21.66
2019-06-26T01:30:20.403Z,21.66
2019-06-26T01:31:20.083Z,21.67
2019-06-26T01:32:19.669Z,21.69
2019-06-26T01:33:19.854Z,21.66
2019-06-26T01:35:19.651Z,21.59
2019-06-26T01:36:19.835Z,21.65
2019-06-26T01:37:20.012Z,21.63
2019-06-26T01:38:20.036Z,21.59
2019-06-26T01:39:19.705Z,21.69
2019-06-26T01:40:19.589Z,21.58
2019-06-26T01:41:19.665Z,21.53
2019-06-26T01:42:19.829Z,21.55
2019-06-26T01:43:20.167Z,21.55
2019-06-26T01:44:19.729Z,21.59
2019-06-26T01:45:19.519Z,21.56
2019-06-26T01:46:19.686Z,21.59
2019-06-26T01:47:19.587Z,21.53
2019-06-26T01:48:19.541Z,21.58
2019-06-26T01:49:20.129Z,21.53
2019-06-26T01:50:19.524Z,21.58
2019-06-26T01:51:19.484Z,21.56
2019-06-26T01:52:20.144Z,21.53
2019-06-26T01:53:19.524Z,21.51
2019-06-26T01:54:19.417Z,21.44
2019-06-26T01:56:19.405Z,21.59
2019-06-26T01:57:19.526Z,21.55
2019-06-26T01:58:19.371Z,21.51
2019-06-26T01:59:19.351Z,21.43
2019-06-26T02:01:19.994Z,21.44
2019-06-26T02:02:19.321Z,21.50
2019-06-26T02:03:19.400Z,21.40
2019-06-26T02:04:19.301Z,21.51
2019-06-26T02:05:19.373Z,21.56
2019-06-26T02:06:19.261Z,21.45
2019-06-26T02:07:19.250Z,21.60
2019-06-26T02:08:19.542Z,21.47
2019-06-26T02:09:19.431Z,21.53
2019-06-26T02:10:19.259Z,21.53
2019-06-26T02:11:19.203Z,21.58
2019-06-26T02:12:19.445Z,21.58
2019-06-26T02:15:19.160Z,21.50
2019-06-26T02:16:19.148Z,21.51
2019-06-26T02:17:19.236Z,21.50
2019-06-26T02:18:19.120Z,21.43
2019-06-26T02:20:19.094Z,21.55
2019-06-26T02:21:19.104Z,21.58
2019-06-26T02:22:19.420Z,21.47
2019-06-26T02:27:19.018Z,21.51
2019-06-26T02:28:19.000Z,21.51
2019-06-26T02:29:19.288Z,21.45
2019-06-26T02:30:18.981Z,21.37
2019-06-26T02:31:19.068Z,21.50
2019-06-26T02:32:18.969Z,21.47
2019-06-26T02:33:18.986Z,21.40
2019-06-26T02:34:18.930Z,21.38
2019-06-26T02:35:18.912Z,21.41
2019-06-26T02:36:19.233Z,21.38
2019-06-26T02:37:18.891Z,21.41
2019-06-26T02:38:18.886Z,21.35
2019-06-26T02:39:18.873Z,21.40
2019-06-26T02:40:18.857Z,21.37
2019-06-26T02:41:18.914Z,21.35
2019-06-26T02:42:18.915Z,21.35
2019-06-26T02:43:19.117Z,21.32
2019-06-26T02:44:18.805Z,21.35
2019-06-26T02:45:18.997Z,21.25
2019-06-26T02:46:18.877Z,21.25
2019-06-26T02:47:20.836Z,21.25
2019-06-26T02:48:18.806Z,21.20
2019-06-26T02:49:18.761Z,21.22
2019-06-26T02:51:19.222Z,21.16
2019-06-26T02:52:18.707Z,21.25
2019-06-26T02:53:18.697Z,21.23
2019-06-26T02:54:18.692Z,21.28
2019-06-26T02:55:18.771Z,21.19
2019-06-26T02:56:18.659Z,21.18
2019-06-26T02:57:18.950Z,21.16
2019-06-26T02:58:18.641Z,21.10
2019-06-26T02:59:18.629Z,21.10
2019-06-26T03:00:18.621Z,21.16
2019-06-26T03:01:18.934Z,21.11
2019-06-26T03:02:18.603Z,21.13
2019-06-26T03:03:18.874Z,21.10
2019-06-26T03:04:18.662Z,21.18
2019-06-26T03:05:18.698Z,21.23
2019-06-26T03:06:18.549Z,21.18
2019-06-26T03:07:18.528Z,21.25
2019-06-26T03:08:18.509Z,21.26
2019-06-26T03:09:18.801Z,21.37
2019-06-26T03:10:18.644Z,21.47
2019-06-26T03:11:18.473Z,21.40
2019-06-26T03:12:18.598Z,21.43
2019-06-26T03:13:18.576Z,21.40
2019-06-26T03:14:18.433Z,21.55
2019-06-26T03:15:19.025Z,21.41
2019-06-26T03:16:18.510Z,21.38
2019-06-26T03:17:18.496Z,21.43
2019-06-26T03:18:18.383Z,21.41
2019-06-26T03:19:18.377Z,21.45
2019-06-26T03:20:18.458Z,21.47
2019-06-26T03:21:18.649Z,21.53
2019-06-26T03:23:18.319Z,21.53
2019-06-26T03:24:18.314Z,21.55
2019-06-26T03:26:18.281Z,21.47
2019-06-26T03:27:18.672Z,21.44
2019-06-26T03:29:18.253Z,21.44
2019-06-26T03:30:18.291Z,21.38
2019-06-26T03:32:18.278Z,21.43
2019-06-26T03:33:18.499Z,21.45
2019-06-26T03:34:18.317Z,21.55
2019-06-26T03:35:18.173Z,21.48
2019-06-26T03:36:18.163Z,21.50
2019-06-26T03:37:18.149Z,21.51
2019-06-26T03:38:18.154Z,21.47
2019-06-26T03:39:18.258Z,21.53
2019-06-26T03:40:18.525Z,21.51
2019-06-26T03:41:18.209Z,21.41
2019-06-26T03:42:18.205Z,21.56
2019-06-26T03:43:18.226Z,21.50
2019-06-26T03:44:18.099Z,21.59
2019-06-26T03:45:25.917Z,21.48
2019-06-26T03:46:18.147Z,21.50
2019-06-26T03:47:18.391Z,21.51
2019-06-26T03:48:18.390Z,21.51
2019-06-26T03:49:18.004Z,21.44
2019-06-26T03:50:18.048Z,21.55
2019-06-26T03:51:18.409Z,21.63
2019-06-26T03:52:18.132Z,21.51
2019-06-26T03:53:17.962Z,21.60
2019-06-26T03:54:18.249Z,21.73
2019-06-26T03:55:18.126Z,21.62
2019-06-26T03:56:18.024Z,21.74
2019-06-26T03:57:17.909Z,21.67
2019-06-26T03:58:18.194Z,21.71
2019-06-26T03:59:17.980Z,21.71
2019-06-26T04:00:17.979Z,21.73
2019-06-26T04:01:18.163Z,21.78
2019-06-26T04:02:17.845Z,21.75
2019-06-26T04:03:17.840Z,21.85
2019-06-26T04:04:17.975Z,21.88
2019-06-26T04:05:17.813Z,21.85
2019-06-26T04:06:17.837Z,21.88
2019-06-26T04:07:17.787Z,21.94
2019-06-26T04:08:18.072Z,21.91
2019-06-26T04:09:17.863Z,21.94
2019-06-26T04:10:17.751Z,22.00
2019-06-26T04:11:17.738Z,22.12
2019-06-26T04:13:17.718Z,22.22
2019-06-26T04:14:17.700Z,22.30
2019-06-26T04:18:17.969Z,22.53
2019-06-26T04:19:17.639Z,22.67
2019-06-26T04:20:17.631Z,22.71
2019-06-26T04:21:17.617Z,22.80
2019-06-26T04:22:17.607Z,22.81
2019-06-26T04:25:17.988Z,22.96
2019-06-26T04:26:17.663Z,23.08
2019-06-26T04:28:17.588Z,23.11
2019-06-26T04:29:17.629Z,23.23
2019-06-26T04:30:17.519Z,23.28
2019-06-26T04:31:18.635Z,23.36
2019-06-26T04:32:17.504Z,23.39
2019-06-26T04:33:17.635Z,23.45
2019-06-26T04:34:17.473Z,23.52
2019-06-26T04:35:17.458Z,23.69
2019-06-26T04:36:17.463Z,23.59
2019-06-26T04:37:17.743Z,23.63
2019-06-26T04:39:17.411Z,23.79
2019-06-26T04:42:17.389Z,24.03
2019-06-26T04:43:17.445Z,24.04
2019-06-26T04:44:18.031Z,24.03
2019-06-26T04:45:17.406Z,24.16
2019-06-26T04:46:18.759Z,24.21
2019-06-26T04:47:17.373Z,24.23
2019-06-26T04:48:17.927Z,24.22
2019-06-26T04:49:17.596Z,24.22
2019-06-26T04:50:17.593Z,24.34
2019-06-26T04:51:17.277Z,24.31
2019-06-26T04:52:17.402Z,24.36
2019-06-26T04:53:17.309Z,24.44
2019-06-26T04:54:17.619Z,24.51
2019-06-26T05:02:17.474Z,24.90
2019-06-26T05:03:29.538Z,24.94
2019-06-26T05:04:17.137Z,25.00
2019-06-26T05:05:17.134Z,25.09
2019-06-26T05:06:17.116Z,25.12
2019-06-26T05:07:17.402Z,25.16
2019-06-26T05:09:17.233Z,25.28
2019-06-26T05:14:17.327Z,25.63
2019-06-26T05:16:20.034Z,25.70
2019-06-26T05:17:17.108Z,25.70
2019-06-26T05:19:16.978Z,25.88
2019-06-26T05:20:17.010Z,26.00
2019-06-26T05:21:17.637Z,26.00
2019-06-26T05:22:17.063Z,26.10
2019-06-26T05:23:17.284Z,26.08
2019-06-26T05:24:17.239Z,26.20
2019-06-26T05:25:16.915Z,26.20
2019-06-26T05:26:17.002Z,26.21
2019-06-26T05:27:16.991Z,26.24
2019-06-26T05:28:17.177Z,26.21
2019-06-26T05:29:16.874Z,26.26
2019-06-26T05:30:17.023Z,26.31
2019-06-26T05:31:17.024Z,26.26
2019-06-26T05:32:16.837Z,26.41
2019-06-26T05:33:18.044Z,26.42
2019-06-26T05:34:17.290Z,26.38
2019-06-26T05:35:17.106Z,26.45
2019-06-26T05:36:16.810Z,26.49
2019-06-26T05:37:16.810Z,26.52
2019-06-26T05:38:16.782Z,26.63
2019-06-26T05:39:16.766Z,26.68
2019-06-26T05:41:17.398Z,26.78
2019-06-26T05:42:16.756Z,26.82
2019-06-26T05:43:16.823Z,26.79
2019-06-26T05:44:16.723Z,26.93
2019-06-26T05:45:16.768Z,26.97
2019-06-26T05:46:30.138Z,26.97
2019-06-26T05:47:16.713Z,27.08
2019-06-26T05:50:16.960Z,27.17
2019-06-26T05:51:16.846Z,27.20
2019-06-26T05:53:17.264Z,27.34
2019-06-26T05:54:16.799Z,27.35
2019-06-26T05:55:16.876Z,27.37
2019-06-26T05:56:16.694Z,27.35
2019-06-26T05:57:16.955Z,27.42
2019-06-26T05:58:16.583Z,27.44
2019-06-26T06:00:16.626Z,27.61
2019-06-26T06:01:16.549Z,27.60
2019-06-26T06:03:16.861Z,27.73
2019-06-26T06:04:16.586Z,27.70
2019-06-26T06:06:16.768Z,27.75
2019-06-26T06:07:16.605Z,27.90
2019-06-26T06:09:16.796Z,27.93
2019-06-26T06:10:16.803Z,27.85
2019-06-26T06:11:16.524Z,27.83
2019-06-26T06:12:16.539Z,27.90
2019-06-26T06:13:17.100Z,27.88
2019-06-26T06:14:16.461Z,28.01
2019-06-26T06:15:16.736Z,28.10
2019-06-26T06:16:16.694Z,28.07
2019-06-26T06:17:16.468Z,28.12
2019-06-26T06:18:16.439Z,28.19
2019-06-26T06:19:16.738Z,28.16
2019-06-26T06:22:16.699Z,28.31
2019-06-26T06:23:16.665Z,28.30
2019-06-26T06:24:16.476Z,28.37
2019-06-26T06:26:16.329Z,28.30
2019-06-26T06:28:16.785Z,28.28
2019-06-26T06:29:16.935Z,28.24
2019-06-26T06:30:16.554Z,28.30
2019-06-26T06:31:16.624Z,28.22
2019-06-26T06:32:17.083Z,28.22
2019-06-26T06:33:16.496Z,28.24
2019-06-26T06:34:16.681Z,28.31
2019-06-26T06:35:16.230Z,28.38
2019-06-26T06:36:16.231Z,28.42
2019-06-26T06:37:16.229Z,28.46
2019-06-26T06:38:16.384Z,28.59
2019-06-26T06:39:16.289Z,28.53
2019-06-26T06:40:16.484Z,28.57
2019-06-26T06:41:16.525Z,28.57
2019-06-26T06:42:16.187Z,28.57
2019-06-26T06:43:16.215Z,28.62
2019-06-26T06:45:16.134Z,28.72
2019-06-26T06:46:16.318Z,28.74
2019-06-26T06:47:16.426Z,28.74
2019-06-26T06:49:16.247Z,28.79
2019-06-26T06:51:16.106Z,28.89
2019-06-26T06:52:16.833Z,29.00
2019-06-26T06:53:18.205Z,28.89
2019-06-26T06:55:16.468Z,29.06
2019-06-26T06:56:16.061Z,29.13
2019-06-26T06:57:16.029Z,29.17
2019-06-26T06:58:16.328Z,29.10
2019-06-26T06:59:16.048Z,29.17
2019-06-26T07:00:16.162Z,29.18
2019-06-26T07:01:16.048Z,29.29
2019-06-26T07:02:16.298Z,29.28
2019-06-26T07:03:16.205Z,29.27
2019-06-26T07:04:16.296Z,29.49
2019-06-26T07:05:16.131Z,29.47
2019-06-26T07:06:21.514Z,29.61
2019-06-26T07:09:18.038Z,29.71
2019-06-26T07:10:17.500Z,29.71
2019-06-26T07:19:15.856Z,30.13
2019-06-26T07:20:16.304Z,30.13
2019-06-26T07:21:15.866Z,30.14
2019-06-26T07:22:16.047Z,30.11
2019-06-26T07:23:16.692Z,30.13
2019-06-26T07:24:15.854Z,30.20
2019-06-26T07:26:15.809Z,30.24
2019-06-26T07:27:20.910Z,30.32
2019-06-26T07:28:15.825Z,30.43
2019-06-26T07:29:15.807Z,30.60
2019-06-26T07:30:16.082Z,30.62
2019-06-26T07:31:16.307Z,30.56
2019-06-26T07:32:15.749Z,30.64
2019-06-26T07:33:15.933Z,30.68
2019-06-26T07:35:15.766Z,30.77
2019-06-26T07:37:16.904Z,30.77
2019-06-26T07:38:15.949Z,30.90
2019-06-26T07:39:15.743Z,31.08
2019-06-26T07:40:15.722Z,30.95
2019-06-26T07:41:16.495Z,30.92
2019-06-26T07:42:15.653Z,31.05
2019-06-26T07:43:16.754Z,31.17
2019-06-26T07:44:15.638Z,31.15
2019-06-26T07:45:15.654Z,31.17
2019-06-26T07:46:15.626Z,31.19
2019-06-26T07:48:16.457Z,31.19
2019-06-26T07:49:16.016Z,31.23
2019-06-26T07:50:16.539Z,31.37
2019-06-26T07:51:15.592Z,31.24
2019-06-26T07:53:15.578Z,31.34
2019-06-26T07:54:15.992Z,31.45
2019-06-26T07:55:15.590Z,31.48
2019-06-26T07:59:17.950Z,31.59
2019-06-26T08:00:15.516Z,31.64
2019-06-26T08:04:15.643Z,31.84
2019-06-26T08:05:15.822Z,32.01
2019-06-26T08:07:15.465Z,32.09
2019-06-26T08:08:15.483Z,32.04
2019-06-26T08:09:15.552Z,32.08
2019-06-26T08:10:15.458Z,32.08
2019-06-26T08:11:15.870Z,32.19
2019-06-26T08:12:15.497Z,32.31
2019-06-26T08:13:16.577Z,32.43
2019-06-26T08:14:15.665Z,32.53
2019-06-26T08:15:15.705Z,32.60
2019-06-26T08:16:15.699Z,32.50
2019-06-26T08:17:15.769Z,32.54
2019-06-26T08:18:17.229Z,32.32
2019-06-26T08:20:15.721Z,32.43
2019-06-26T08:23:16.531Z,32.63
2019-06-26T08:24:15.702Z,32.53
2019-06-26T08:25:15.365Z,32.51
2019-06-26T08:26:15.509Z,32.57
2019-06-26T08:27:15.365Z,32.63
2019-06-26T08:29:15.349Z,32.70
2019-06-26T08:30:15.338Z,32.68
2019-06-26T08:32:15.391Z,32.90
2019-06-26T08:33:15.320Z,32.68
2019-06-26T08:34:15.325Z,32.77
2019-06-26T08:35:15.553Z,32.72
2019-06-26T08:36:15.306Z,32.90
2019-06-26T08:37:15.522Z,33.07
2019-06-26T08:38:15.942Z,33.17
2019-06-26T08:39:15.348Z,33.29
2019-06-26T08:40:15.285Z,33.42
2019-06-26T08:41:15.278Z,33.30
2019-06-26T08:44:15.609Z,33.35
2019-06-26T08:45:15.310Z,33.60
2019-06-26T08:46:15.281Z,33.62
2019-06-26T08:47:15.337Z,33.49
2019-06-26T08:48:23.151Z,33.45
2019-06-26T08:49:25.484Z,33.55
2019-06-26T08:50:15.344Z,33.52
2019-06-26T08:51:15.649Z,33.70
2019-06-26T08:52:15.237Z,33.64
2019-06-26T08:53:15.393Z,33.57
2019-06-26T08:54:15.210Z,33.57
2019-06-26T08:55:15.275Z,33.71
2019-06-26T08:56:15.214Z,33.71
2019-06-26T08:57:15.349Z,33.55
2019-06-26T08:58:15.486Z,33.45
2019-06-26T08:59:15.440Z,33.48
2019-06-26T09:00:15.240Z,33.42
2019-06-26T09:01:15.218Z,33.29
2019-06-26T09:02:15.195Z,33.37
2019-06-26T09:03:15.449Z,33.22
2019-06-26T09:04:15.226Z,33.14
2019-06-26T09:05:15.447Z,33.20
2019-06-26T09:06:15.252Z,33.20
2019-06-26T09:07:15.144Z,33.36
2019-06-26T09:08:15.169Z,33.45
2019-06-26T09:09:15.127Z,33.45
2019-06-26T09:10:15.146Z,33.54
2019-06-26T09:11:15.132Z,33.55
2019-06-26T09:12:15.521Z,33.47
2019-06-26T09:14:15.229Z,33.60
2019-06-26T09:15:15.129Z,33.48
2019-06-26T09:18:15.493Z,33.67
2019-06-26T09:19:15.429Z,33.62
2019-06-26T09:20:15.233Z,33.67
2019-06-26T09:21:15.317Z,33.52
2019-06-26T09:22:15.688Z,33.44
2019-06-26T09:23:15.194Z,33.42
2019-06-26T09:24:15.770Z,33.45
2019-06-26T09:25:22.081Z,33.57
2019-06-26T09:27:15.362Z,33.57
2019-06-26T09:28:15.105Z,33.51
2019-06-26T09:29:15.089Z,33.51
2019-06-26T09:30:15.429Z,33.70
2019-06-26T09:31:15.085Z,33.82
2019-06-26T09:33:15.096Z,33.47
2019-06-26T09:34:15.067Z,33.41
2019-06-26T09:35:15.075Z,33.63
2019-06-26T09:36:15.357Z,33.60
2019-06-26T09:37:15.297Z,33.76
2019-06-26T09:38:15.035Z,33.73
2019-06-26T09:39:15.041Z,33.84
2019-06-26T09:40:15.031Z,33.82
2019-06-26T09:41:15.112Z,33.79
2019-06-26T09:42:19.360Z,33.85
2019-06-26T09:43:15.029Z,33.76
2019-06-26T09:44:15.045Z,33.67
2019-06-26T09:45:15.029Z,33.67
2019-06-26T09:46:15.027Z,33.98
2019-06-26T09:47:15.728Z,34.08
2019-06-26T09:48:16.000Z,34.07
2019-06-26T09:49:15.244Z,34.19
2019-06-26T09:52:15.003Z,34.00
2019-06-26T09:53:15.055Z,34.06
2019-06-26T09:54:15.329Z,34.03
2019-06-26T09:56:15.046Z,33.91
2019-06-26T09:58:15.386Z,33.89
2019-06-26T09:59:15.003Z,33.93
2019-06-26T10:00:15.329Z,33.85
2019-06-26T10:01:14.989Z,33.86
2019-06-26T10:02:15.002Z,34.16
2019-06-26T10:03:15.039Z,34.18
2019-06-26T10:04:14.993Z,34.35
2019-06-26T10:05:14.995Z,34.47
2019-06-26T10:06:14.984Z,34.38
2019-06-26T10:07:15.368Z,34.38
2019-06-26T10:08:15.044Z,34.52
2019-06-26T10:09:15.000Z,34.62
2019-06-26T10:10:14.993Z,34.44
2019-06-26T10:11:14.989Z,34.34
2019-06-26T10:12:14.989Z,34.23
2019-06-26T10:13:14.985Z,34.56
2019-06-26T10:15:15.039Z,34.60
2019-06-26T10:16:15.088Z,34.64
2019-06-26T10:17:14.994Z,34.79
2019-06-26T10:18:15.070Z,34.90
2019-06-26T10:19:15.807Z,35.09
2019-06-26T10:20:18.770Z,35.13
2019-06-26T10:23:15.043Z,34.82
2019-06-26T10:24:15.147Z,34.78
2019-06-26T10:25:15.009Z,34.50
2019-06-26T10:27:15.028Z,34.41
2019-06-26T10:28:15.300Z,34.34
2019-06-26T10:29:15.005Z,34.34
2019-06-26T10:30:14.980Z,34.34
2019-06-26T10:32:15.032Z,34.38
2019-06-26T10:35:15.340Z,34.63
2019-06-26T10:36:14.993Z,34.80
2019-06-26T10:38:15.135Z,34.82
2019-06-26T10:39:16.043Z,34.97
2019-06-26T10:40:16.410Z,35.02
2019-06-26T10:41:14.986Z,34.99
2019-06-26T10:42:15.306Z,34.67
2019-06-26T10:43:15.313Z,34.34
2019-06-26T10:44:14.987Z,34.34
2019-06-26T10:45:14.971Z,34.35
2019-06-26T10:46:14.976Z,34.25
2019-06-26T10:47:14.991Z,34.26
2019-06-26T10:49:26.464Z,34.29
2019-06-26T10:50:15.005Z,34.44
2019-06-26T10:51:15.385Z,34.48
2019-06-26T10:52:14.998Z,34.57
2019-06-26T10:53:14.977Z,34.76
2019-06-26T10:56:15.343Z,34.87
2019-06-26T10:57:14.989Z,34.85
2019-06-26T11:00:14.990Z,34.85
2019-06-26T11:01:15.110Z,34.82
2019-06-26T11:03:15.288Z,34.83
2019-06-26T11:04:15.370Z,35.02
2019-06-26T11:05:15.022Z,34.99
2019-06-26T11:06:14.988Z,35.02
2019-06-26T11:08:14.985Z,34.80
2019-06-26T11:09:15.505Z,34.97
2019-06-26T11:12:15.386Z,35.19
2019-06-26T11:13:15.208Z,35.26
2019-06-26T11:14:15.013Z,35.13
2019-06-26T11:15:15.376Z,35.19
2019-06-26T11:16:15.045Z,35.20
2019-06-26T11:17:14.999Z,35.24
2019-06-26T11:18:14.995Z,35.02
2019-06-26T11:19:15.002Z,34.95
2019-06-26T11:20:15.045Z,34.86
2019-06-26T11:21:15.308Z,35.21
2019-06-26T11:22:15.002Z,35.23
2019-06-26T11:23:15.047Z,35.41
2019-06-26T11:27:15.523Z,34.99
2019-06-26T11:28:15.024Z,35.14
2019-06-26T11:30:15.039Z,35.46
2019-06-26T11:31:15.072Z,35.42
2019-06-26T11:32:15.220Z,35.39
2019-06-26T11:33:15.343Z,35.32
2019-06-26T11:34:15.049Z,35.26
2019-06-26T11:35:15.025Z,35.24
2019-06-26T11:36:15.026Z,35.38
2019-06-26T11:37:15.024Z,35.57
2019-06-26T11:38:15.078Z,35.68
2019-06-26T11:39:15.355Z,35.51
2019-06-26T11:40:15.041Z,35.34
2019-06-26T11:41:15.027Z,35.31
2019-06-26T11:42:15.035Z,35.56
2019-06-26T11:43:15.043Z,35.36
2019-06-26T11:44:15.041Z,35.14
2019-06-26T11:45:15.352Z,35.26
2019-06-26T11:46:15.128Z,35.20
2019-06-26T11:47:15.203Z,35.01
2019-06-26T11:48:15.045Z,35.12
2019-06-26T11:51:15.057Z,35.26
2019-06-26T11:52:15.522Z,35.28
2019-06-26T11:54:15.056Z,35.29
2019-06-26T11:56:15.659Z,35.19
2019-06-26T11:57:15.054Z,35.32
2019-06-26T12:00:15.076Z,35.23
2019-06-26T12:01:15.077Z,35.39
2019-06-26T12:02:15.077Z,35.23
2019-06-26T12:03:15.058Z,35.09
2019-06-26T12:04:15.082Z,35.24
2019-06-26T12:05:15.064Z,35.39
2019-06-26T12:07:15.059Z,35.53
2019-06-26T12:08:18.322Z,35.48
2019-06-26T12:09:15.071Z,35.92
2019-06-26T12:10:15.154Z,35.79
2019-06-26T12:11:15.084Z,35.87
2019-06-26T12:12:15.089Z,35.79
2019-06-26T12:13:15.378Z,35.77
2019-06-26T12:15:15.247Z,35.58
2019-06-26T12:16:15.118Z,35.26
2019-06-26T12:17:15.103Z,35.21
2019-06-26T12:18:15.100Z,35.29
2019-06-26T12:19:18.663Z,35.23
2019-06-26T12:20:19.417Z,35.44
2019-06-26T12:21:15.081Z,35.35
2019-06-26T12:22:15.088Z,35.23
2019-06-26T12:24:15.108Z,35.41
2019-06-26T12:25:15.102Z,35.92
2019-06-26T12:26:15.175Z,36.30
2019-06-26T12:27:15.398Z,36.29
2019-06-26T12:28:15.109Z,36.11
2019-06-26T12:29:15.102Z,35.48
2019-06-26T12:30:15.102Z,35.36
2019-06-26T12:31:15.507Z,35.24
2019-06-26T12:32:15.229Z,35.10
2019-06-26T12:33:15.116Z,35.17
2019-06-26T12:34:15.478Z,35.32
2019-06-26T12:35:15.110Z,35.56
2019-06-26T12:36:15.124Z,35.81
2019-06-26T12:37:15.178Z,35.42
2019-06-26T12:38:15.142Z,35.10
2019-06-26T12:39:15.141Z,35.28
2019-06-26T12:40:15.344Z,35.19
2019-06-26T12:41:15.423Z,35.41
2019-06-26T12:42:15.139Z,35.13
2019-06-26T12:43:15.213Z,35.09
2019-06-26T12:44:15.127Z,34.60
2019-06-26T12:45:15.191Z,34.67
2019-06-26T12:46:18.116Z,35.14
2019-06-26T12:47:15.161Z,35.21
2019-06-26T12:48:16.333Z,35.20
2019-06-26T12:49:15.181Z,35.38
2019-06-26T12:50:15.135Z,35.16
2019-06-26T12:51:15.143Z,35.14
2019-06-26T12:52:17.074Z,35.16
2019-06-26T12:53:15.605Z,34.40
2019-06-26T12:54:15.142Z,34.25
2019-06-26T12:55:15.149Z,34.50
2019-06-26T12:56:15.293Z,34.59
2019-06-26T12:57:15.225Z,34.45
2019-06-26T12:58:19.647Z,34.52
2019-06-26T12:59:15.449Z,34.80
2019-06-26T13:00:15.213Z,34.80
2019-06-26T13:01:15.144Z,34.79
2019-06-26T13:02:15.201Z,34.52
2019-06-26T13:03:15.214Z,34.45
2019-06-26T13:04:15.786Z,34.63
2019-06-26T13:05:15.443Z,34.83
2019-06-26T13:06:15.195Z,34.78
2019-06-26T13:07:15.159Z,34.60
2019-06-26T13:08:15.171Z,34.30
2019-06-26T13:09:15.152Z,34.66
2019-06-26T13:10:15.159Z,34.91
2019-06-26T13:11:15.926Z,34.80
2019-06-26T13:12:15.140Z,34.67
2019-06-26T13:13:15.173Z,34.90
2019-06-26T13:14:15.171Z,34.63
2019-06-26T13:15:15.396Z,34.76
2019-06-26T13:16:15.149Z,35.28
2019-06-26T13:17:15.506Z,35.13
2019-06-26T13:18:15.146Z,34.79
2019-06-26T13:19:15.170Z,34.35
2019-06-26T13:20:15.144Z,34.29
2019-06-26T13:21:15.371Z,34.38
2019-06-26T13:22:15.276Z,34.57
2019-06-26T13:23:15.560Z,34.66
2019-06-26T13:25:16.082Z,34.73
2019-06-26T13:26:15.222Z,34.64
2019-06-26T13:27:16.540Z,34.59
2019-06-26T13:28:15.153Z,34.82
2019-06-26T13:29:15.493Z,34.59
2019-06-26T13:30:15.251Z,34.16
2019-06-26T13:31:15.133Z,34.16
2019-06-26T13:32:16.770Z,34.32
2019-06-26T13:33:15.114Z,34.25
2019-06-26T13:35:15.692Z,34.47
2019-06-26T13:36:15.109Z,34.82
2019-06-26T13:37:15.519Z,34.63
2019-06-26T13:39:15.108Z,34.16
2019-06-26T13:40:15.103Z,34.13
2019-06-26T13:41:15.812Z,34.34
2019-06-26T13:42:15.407Z,33.92
2019-06-26T13:43:15.116Z,34.04
2019-06-26T13:44:15.112Z,34.44
2019-06-26T13:45:15.131Z,34.52
2019-06-26T13:46:15.109Z,34.66
2019-06-26T13:48:15.350Z,34.37
2019-06-26T13:49:16.605Z,34.15
2019-06-26T13:50:15.126Z,34.08
2019-06-26T13:51:15.141Z,34.08
2019-06-26T13:53:15.098Z,34.22
2019-06-26T13:54:15.086Z,34.56
2019-06-26T13:55:15.079Z,34.62
2019-06-26T13:56:15.465Z,34.22
2019-06-26T13:57:15.959Z,34.11
2019-06-26T14:01:15.176Z,33.70
2019-06-26T14:02:15.249Z,33.73
2019-06-26T14:04:15.659Z,33.69
2019-06-26T14:06:15.095Z,33.82
2019-06-26T14:07:15.059Z,34.06
2019-06-26T14:10:15.396Z,33.52
2019-06-26T14:11:15.456Z,33.41
2019-06-26T14:12:19.035Z,33.45
2019-06-26T14:13:15.081Z,33.27
2019-06-26T14:14:15.636Z,33.27
2019-06-26T14:15:15.163Z,33.41
2019-06-26T14:16:15.107Z,33.49
2019-06-26T14:17:15.329Z,33.60
2019-06-26T14:18:15.009Z,33.89
2019-06-26T14:19:15.054Z,34.01
2019-06-26T14:20:15.034Z,34.01
2019-06-26T14:21:24.955Z,33.76
2019-06-26T14:23:14.999Z,33.76
2019-06-26T14:24:15.716Z,33.91
2019-06-26T14:25:15.020Z,33.58
2019-06-26T14:26:14.983Z,33.54
2019-06-26T14:27:14.978Z,33.51
2019-06-26T14:28:15.002Z,33.52
2019-06-26T14:29:20.753Z,33.81
2019-06-26T14:31:15.443Z,34.15
2019-06-26T14:32:15.070Z,33.85
2019-06-26T14:33:15.059Z,33.81
2019-06-26T14:34:14.963Z,34.04
2019-06-26T14:35:14.941Z,34.07
2019-06-26T14:36:14.938Z,34.06
2019-06-26T14:37:15.651Z,34.15
2019-06-26T14:38:15.105Z,33.82
2019-06-26T14:41:14.969Z,34.03
2019-06-26T14:42:14.913Z,34.16
2019-06-26T14:44:15.312Z,34.30
2019-06-26T14:45:14.897Z,34.11
2019-06-26T14:46:15.144Z,33.74
2019-06-26T14:47:14.922Z,33.36
2019-06-26T14:48:14.893Z,33.27
2019-06-26T14:49:14.898Z,33.45
2019-06-26T14:50:15.236Z,33.48
2019-06-26T14:51:14.963Z,33.54
2019-06-26T14:52:15.161Z,33.64
2019-06-26T14:53:14.986Z,33.67
2019-06-26T14:54:14.887Z,33.62
2019-06-26T14:55:14.884Z,33.49
2019-06-26T14:56:15.185Z,33.41
2019-06-26T14:58:14.848Z,33.47
2019-06-26T14:59:14.855Z,33.41
2019-06-26T15:00:16.331Z,33.09
2019-06-26T15:01:14.849Z,33.24
2019-06-26T15:02:15.197Z,33.32
2019-06-26T15:03:14.863Z,33.39
2019-06-26T15:04:14.877Z,33.48
2019-06-26T15:05:14.857Z,33.51
2019-06-26T15:06:16.936Z,33.33
2019-06-26T15:07:15.218Z,32.95
2019-06-26T15:08:15.273Z,32.75
2019-06-26T15:09:14.893Z,32.80
2019-06-26T15:10:14.818Z,32.97
2019-06-26T15:11:15.733Z,32.70
2019-06-26T15:12:14.844Z,32.99
2019-06-26T15:13:14.797Z,32.76
2019-06-26T15:14:14.845Z,32.68
2019-06-26T15:15:15.097Z,32.92
2019-06-26T15:16:14.954Z,32.76
2019-06-26T15:17:14.835Z,32.61